sensor_id;sensor_type;location;lat;lon;timestamp;pressure;altitude;pressure_sealevel;temperature;humidity
74722;BME280;63470;49.826;6.740;2023-05-14T00:00:49;100421.48;;;10.92;61.10
74722;BME280;63470;49.826;6.740;2023-05-14T00:03:20;100416.50;;;10.93;61.16
74722;BME280;63470;49.826;6.740;2023-05-14T00:05:53;100416.97;;;10.97;61.22
74722;BME280;63470;49.826;6.740;2023-05-14T00:08:20;100411.34;;;11.02;61.19
74722;BME280;63470;49.826;6.740;2023-05-14T00:10:51;100407.65;;;11.06;61.14
74722;BME280;63470;49.826;6.740;2023-05-14T00:13:21;100400.52;;;11.09;61.05
74722;BME280;63470;49.826;6.740;2023-05-14T00:15:51;100397.79;;;11.08;61.04
74722;BME280;63470;49.826;6.740;2023-05-14T00:18:22;100399.49;;;11.10;61.09
74722;BME280;63470;49.826;6.740;2023-05-14T00:20:54;100405.82;;;11.12;61.07
74722;BME280;63470;49.826;6.740;2023-05-14T00:23:23;100406.53;;;11.13;61.09
74722;BME280;63470;49.826;6.740;2023-05-14T00:25:53;100403.39;;;11.14;61.02
74722;BME280;63470;49.826;6.740;2023-05-14T00:28:24;100402.90;;;11.15;60.95
74722;BME280;63470;49.826;6.740;2023-05-14T00:30:56;100397.91;;;11.15;60.97
74722;BME280;63470;49.826;6.740;2023-05-14T00:33:25;100394.03;;;11.17;60.89
74722;BME280;63470;49.826;6.740;2023-05-14T00:35:55;100390.86;;;11.18;60.83
74722;BME280;63470;49.826;6.740;2023-05-14T00:38:28;100388.22;;;11.18;60.72
74722;BME280;63470;49.826;6.740;2023-05-14T00:40:59;100387.95;;;11.14;60.78
74722;BME280;63470;49.826;6.740;2023-05-14T00:43:27;100386.96;;;11.13;60.82
74722;BME280;63470;49.826;6.740;2023-05-14T00:45:58;100387.73;;;11.12;60.89
74722;BME280;63470;49.826;6.740;2023-05-14T00:48:28;100389.20;;;11.08;60.93
74722;BME280;63470;49.826;6.740;2023-05-14T00:50:58;100390.28;;;11.02;60.98
74722;BME280;63470;49.826;6.740;2023-05-14T00:53:29;100390.73;;;10.95;61.14
74722;BME280;63470;49.826;6.740;2023-05-14T00:56:00;100394.56;;;10.91;61.20
74722;BME280;63470;49.826;6.740;2023-05-14T00:58:30;100393.30;;;10.88;61.24
74722;BME280;63470;49.826;6.740;2023-05-14T01:01:03;100397.27;;;10.87;61.24
74722;BME280;63470;49.826;6.740;2023-05-14T01:03:32;100397.56;;;10.89;61.24
74722;BME280;63470;49.826;6.740;2023-05-14T01:06:42;100396.88;;;10.92;61.27
74722;BME280;63470;49.826;6.740;2023-05-14T01:08:55;100397.72;;;10.95;61.22
74722;BME280;63470;49.826;6.740;2023-05-14T01:11:06;100390.88;;;10.97;61.16
74722;BME280;63470;49.826;6.740;2023-05-14T01:16:09;100387.32;;;10.96;61.11
74722;BME280;63470;49.826;6.740;2023-05-14T01:18:36;100389.25;;;10.94;61.16
74722;BME280;63470;49.826;6.740;2023-05-14T01:21:04;100390.05;;;10.89;61.19
74722;BME280;63470;49.826;6.740;2023-05-14T01:23:34;100386.20;;;10.87;61.25
74722;BME280;63470;49.826;6.740;2023-05-14T01:26:04;100391.84;;;10.86;61.31
74722;BME280;63470;49.826;6.740;2023-05-14T01:28:36;100387.17;;;10.84;61.29
74722;BME280;63470;49.826;6.740;2023-05-14T01:31:15;100383.23;;;10.81;61.27
74722;BME280;63470;49.826;6.740;2023-05-14T01:33:40;100384.12;;;10.77;61.33
74722;BME280;63470;49.826;6.740;2023-05-14T01:36:08;100382.61;;;10.73;61.32
74722;BME280;63470;49.826;6.740;2023-05-14T01:38:37;100384.77;;;10.67;61.33
74722;BME280;63470;49.826;6.740;2023-05-14T01:41:08;100388.17;;;10.59;61.36
74722;BME280;63470;49.826;6.740;2023-05-14T01:43:39;100386.44;;;10.53;61.40
74722;BME280;63470;49.826;6.740;2023-05-14T01:46:09;100388.34;;;10.48;61.47
74722;BME280;63470;49.826;6.740;2023-05-14T01:48:41;100384.62;;;10.46;61.54
74722;BME280;63470;49.826;6.740;2023-05-14T01:51:10;100381.59;;;10.45;61.53
74722;BME280;63470;49.826;6.740;2023-05-14T01:53:41;100380.08;;;10.41;61.49
74722;BME280;63470;49.826;6.740;2023-05-14T01:56:11;100380.02;;;10.39;61.54
74722;BME280;63470;49.826;6.740;2023-05-14T01:58:42;100376.84;;;10.38;61.52
74722;BME280;63470;49.826;6.740;2023-05-14T02:01:12;100374.42;;;10.40;61.52
74722;BME280;63470;49.826;6.740;2023-05-14T02:03:43;100372.33;;;10.42;61.52
74722;BME280;63470;49.826;6.740;2023-05-14T02:06:13;100369.58;;;10.44;61.50
74722;BME280;63470;49.826;6.740;2023-05-14T02:08:44;100365.64;;;10.46;61.48
74722;BME280;63470;49.826;6.740;2023-05-14T02:11:14;100362.02;;;10.46;61.47
74722;BME280;63470;49.826;6.740;2023-05-14T02:13:45;100363.86;;;10.45;61.46
74722;BME280;63470;49.826;6.740;2023-05-14T02:16:16;100362.23;;;10.44;61.50
74722;BME280;63470;49.826;6.740;2023-05-14T02:18:46;100358.94;;;10.44;61.50
74722;BME280;63470;49.826;6.740;2023-05-14T02:21:16;100365.12;;;10.44;61.47
74722;BME280;63470;49.826;6.740;2023-05-14T02:23:49;100363.01;;;10.41;61.48
74722;BME280;63470;49.826;6.740;2023-05-14T02:26:18;100362.87;;;10.39;61.51
74722;BME280;63470;49.826;6.740;2023-05-14T02:28:48;100360.97;;;10.39;61.54
74722;BME280;63470;49.826;6.740;2023-05-14T02:31:19;100353.93;;;10.41;61.47
74722;BME280;63470;49.826;6.740;2023-05-14T02:33:49;100353.69;;;10.41;61.51
74722;BME280;63470;49.826;6.740;2023-05-14T02:36:20;100354.73;;;10.44;61.48
74722;BME280;63470;49.826;6.740;2023-05-14T02:38:50;100353.13;;;10.44;61.42
74722;BME280;63470;49.826;6.740;2023-05-14T02:41:21;100352.09;;;10.43;61.39
74722;BME280;63470;49.826;6.740;2023-05-14T02:43:52;100354.40;;;10.43;61.42
74722;BME280;63470;49.826;6.740;2023-05-14T02:46:22;100351.45;;;10.42;61.46
74722;BME280;63470;49.826;6.740;2023-05-14T02:48:56;100351.12;;;10.41;61.50
74722;BME280;63470;49.826;6.740;2023-05-14T02:51:23;100354.34;;;10.40;61.52
74722;BME280;63470;49.826;6.740;2023-05-14T02:53:54;100349.64;;;10.42;61.56
74722;BME280;63470;49.826;6.740;2023-05-14T02:56:24;100349.95;;;10.43;61.60
74722;BME280;63470;49.826;6.740;2023-05-14T02:58:55;100349.12;;;10.44;61.63
74722;BME280;63470;49.826;6.740;2023-05-14T03:01:25;100349.75;;;10.46;61.59
74722;BME280;63470;49.826;6.740;2023-05-14T03:03:56;100347.33;;;10.46;61.55
74722;BME280;63470;49.826;6.740;2023-05-14T03:06:26;100345.35;;;10.47;61.53
74722;BME280;63470;49.826;6.740;2023-05-14T03:08:57;100345.71;;;10.46;61.46
74722;BME280;63470;49.826;6.740;2023-05-14T03:11:27;100343.18;;;10.44;61.45
74722;BME280;63470;49.826;6.740;2023-05-14T03:13:58;100341.86;;;10.43;61.43
74722;BME280;63470;49.826;6.740;2023-05-14T03:16:28;100337.73;;;10.43;61.40
74722;BME280;63470;49.826;6.740;2023-05-14T03:18:58;100336.03;;;10.40;61.45
74722;BME280;63470;49.826;6.740;2023-05-14T03:21:29;100335.78;;;10.41;61.53
74722;BME280;63470;49.826;6.740;2023-05-14T03:24:00;100330.86;;;10.40;61.50
74722;BME280;63470;49.826;6.740;2023-05-14T03:26:33;100330.53;;;10.40;61.54
74722;BME280;63470;49.826;6.740;2023-05-14T03:29:01;100330.56;;;10.38;61.54
74722;BME280;63470;49.826;6.740;2023-05-14T03:31:32;100334.49;;;10.39;61.56
74722;BME280;63470;49.826;6.740;2023-05-14T03:34:02;100332.68;;;10.40;61.52
74722;BME280;63470;49.826;6.740;2023-05-14T03:36:35;100332.52;;;10.40;61.46
74722;BME280;63470;49.826;6.740;2023-05-14T03:39:03;100337.44;;;10.41;61.46
74722;BME280;63470;49.826;6.740;2023-05-14T03:41:33;100343.29;;;10.41;61.51
74722;BME280;63470;49.826;6.740;2023-05-14T03:44:06;100338.42;;;10.42;61.49
74722;BME280;63470;49.826;6.740;2023-05-14T03:46:34;100338.17;;;10.41;61.54
74722;BME280;63470;49.826;6.740;2023-05-14T03:49:05;100337.22;;;10.39;61.52
74722;BME280;63470;49.826;6.740;2023-05-14T03:51:35;100333.91;;;10.39;61.54
74722;BME280;63470;49.826;6.740;2023-05-14T03:54:06;100334.41;;;10.39;61.50
74722;BME280;63470;49.826;6.740;2023-05-14T03:56:36;100334.66;;;10.40;61.47
74722;BME280;63470;49.826;6.740;2023-05-14T03:59:07;100338.62;;;10.40;61.52
74722;BME280;63470;49.826;6.740;2023-05-14T04:01:40;100341.01;;;10.39;61.54
74722;BME280;63470;49.826;6.740;2023-05-14T04:04:08;100342.16;;;10.38;61.47
74722;BME280;63470;49.826;6.740;2023-05-14T04:06:39;100337.79;;;10.39;61.49
74722;BME280;63470;49.826;6.740;2023-05-14T04:09:10;100334.73;;;10.39;61.51
74722;BME280;63470;49.826;6.740;2023-05-14T04:11:40;100338.70;;;10.38;61.49
74722;BME280;63470;49.826;6.740;2023-05-14T04:14:13;100334.41;;;10.40;61.57
74722;BME280;63470;49.826;6.740;2023-05-14T04:16:41;100332.62;;;10.44;61.55
74722;BME280;63470;49.826;6.740;2023-05-14T04:19:12;100334.62;;;10.46;61.49
74722;BME280;63470;49.826;6.740;2023-05-14T04:21:41;100335.64;;;10.45;61.43
74722;BME280;63470;49.826;6.740;2023-05-14T04:24:14;100330.95;;;10.45;61.42
74722;BME280;63470;49.826;6.740;2023-05-14T04:26:42;100333.94;;;10.44;61.42
74722;BME280;63470;49.826;6.740;2023-05-14T04:29:17;100331.50;;;10.42;61.39
74722;BME280;63470;49.826;6.740;2023-05-14T04:31:43;100332.10;;;10.40;61.39
74722;BME280;63470;49.826;6.740;2023-05-14T04:34:12;100330.01;;;10.41;61.46
74722;BME280;63470;49.826;6.740;2023-05-14T04:36:43;100332.54;;;10.43;61.39
74722;BME280;63470;49.826;6.740;2023-05-14T04:39:13;100331.52;;;10.44;61.41
74722;BME280;63470;49.826;6.740;2023-05-14T04:41:48;100334.79;;;10.46;61.45
74722;BME280;63470;49.826;6.740;2023-05-14T04:44:14;100333.22;;;10.47;61.32
74722;BME280;63470;49.826;6.740;2023-05-14T04:46:45;100332.59;;;10.45;61.36
74722;BME280;63470;49.826;6.740;2023-05-14T04:49:18;100337.11;;;10.41;61.40
74722;BME280;63470;49.826;6.740;2023-05-14T04:51:47;100332.62;;;10.37;61.47
74722;BME280;63470;49.826;6.740;2023-05-14T04:54:17;100333.47;;;10.34;61.50
74722;BME280;63470;49.826;6.740;2023-05-14T04:56:47;100337.91;;;10.37;61.48
74722;BME280;63470;49.826;6.740;2023-05-14T04:59:18;100339.69;;;10.39;61.49
74722;BME280;63470;49.826;6.740;2023-05-14T05:01:48;100339.05;;;10.43;61.49
74722;BME280;63470;49.826;6.740;2023-05-14T05:04:18;100339.58;;;10.48;61.35
74722;BME280;63470;49.826;6.740;2023-05-14T05:06:49;100340.65;;;10.53;61.29
74722;BME280;63470;49.826;6.740;2023-05-14T05:09:20;100344.63;;;10.57;61.22
74722;BME280;63470;49.826;6.740;2023-05-14T05:11:50;100344.91;;;10.55;61.27
74722;BME280;63470;49.826;6.740;2023-05-14T05:14:21;100343.51;;;10.56;61.33
74722;BME280;63470;49.826;6.740;2023-05-14T05:16:51;100338.11;;;10.57;61.32
74722;BME280;63470;49.826;6.740;2023-05-14T05:19:22;100341.00;;;10.58;61.30
74722;BME280;63470;49.826;6.740;2023-05-14T05:21:52;100339.65;;;10.65;61.29
74722;BME280;63470;49.826;6.740;2023-05-14T05:24:23;100332.34;;;10.73;61.23
74722;BME280;63470;49.826;6.740;2023-05-14T05:26:56;100337.95;;;10.79;61.13
74722;BME280;63470;49.826;6.740;2023-05-14T05:29:24;100338.09;;;10.82;61.15
74722;BME280;63470;49.826;6.740;2023-05-14T05:31:54;100338.80;;;10.84;61.20
74722;BME280;63470;49.826;6.740;2023-05-14T05:34:25;100333.56;;;10.85;61.13
74722;BME280;63470;49.826;6.740;2023-05-14T05:36:58;100333.87;;;10.88;61.08
74722;BME280;63470;49.826;6.740;2023-05-14T05:39:26;100336.83;;;10.93;61.03
74722;BME280;63470;49.826;6.740;2023-05-14T05:41:56;100336.08;;;10.93;61.05
74722;BME280;63470;49.826;6.740;2023-05-14T05:44:27;100337.26;;;10.97;61.01
74722;BME280;63470;49.826;6.740;2023-05-14T05:46:58;100336.70;;;11.02;60.98
74722;BME280;63470;49.826;6.740;2023-05-14T05:49:32;100337.30;;;11.11;60.96
74722;BME280;63470;49.826;6.740;2023-05-14T05:51:59;100329.88;;;11.20;60.85
74722;BME280;63470;49.826;6.740;2023-05-14T05:54:31;100335.25;;;11.24;60.77
74722;BME280;63470;49.826;6.740;2023-05-14T05:57:00;100336.67;;;11.27;60.76
74722;BME280;63470;49.826;6.740;2023-05-14T05:59:31;100338.83;;;11.32;60.73
74722;BME280;63470;49.826;6.740;2023-05-14T06:02:01;100342.80;;;11.33;60.67
74722;BME280;63470;49.826;6.740;2023-05-14T06:04:32;100342.06;;;11.37;60.70
74722;BME280;63470;49.826;6.740;2023-05-14T06:07:02;100342.50;;;11.45;60.54
74722;BME280;63470;49.826;6.740;2023-05-14T06:09:33;100344.52;;;11.55;60.46
74722;BME280;63470;49.826;6.740;2023-05-14T06:12:04;100349.58;;;11.65;60.29
74722;BME280;63470;49.826;6.740;2023-05-14T06:14:33;100346.02;;;11.67;60.30
74722;BME280;63470;49.826;6.740;2023-05-14T06:17:04;100347.34;;;11.70;60.37
74722;BME280;63470;49.826;6.740;2023-05-14T06:19:34;100348.46;;;11.73;60.42
74722;BME280;63470;49.826;6.740;2023-05-14T06:22:07;100350.16;;;11.75;60.55
74722;BME280;63470;49.826;6.740;2023-05-14T06:24:35;100350.99;;;11.78;60.49
74722;BME280;63470;49.826;6.740;2023-05-14T06:27:05;100350.66;;;11.79;60.42
74722;BME280;63470;49.826;6.740;2023-05-14T06:29:36;100351.32;;;11.79;60.37
74722;BME280;63470;49.826;6.740;2023-05-14T06:32:07;100350.83;;;11.79;60.37
74722;BME280;63470;49.826;6.740;2023-05-14T06:34:37;100351.67;;;11.91;60.44
74722;BME280;63470;49.826;6.740;2023-05-14T06:37:09;100348.04;;;12.11;60.26
74722;BME280;63470;49.826;6.740;2023-05-14T06:39:38;100347.95;;;12.35;60.12
74722;BME280;63470;49.826;6.740;2023-05-14T06:42:09;100347.50;;;12.62;59.95
74722;BME280;63470;49.826;6.740;2023-05-14T06:44:39;100344.27;;;12.91;59.87
74722;BME280;63470;49.826;6.740;2023-05-14T06:47:10;100346.41;;;13.24;59.66
74722;BME280;63470;49.826;6.740;2023-05-14T06:49:41;100340.34;;;13.51;59.42
74722;BME280;63470;49.826;6.740;2023-05-14T06:52:11;100337.73;;;13.52;59.66
74722;BME280;63470;49.826;6.740;2023-05-14T06:54:42;100340.73;;;13.55;59.77
74722;BME280;63470;49.826;6.740;2023-05-14T06:57:12;100342.93;;;13.40;59.95
74722;BME280;63470;49.826;6.740;2023-05-14T06:59:42;100346.47;;;13.45;60.34
74722;BME280;63470;49.826;6.740;2023-05-14T07:02:13;100339.77;;;13.63;60.21
74722;BME280;63470;49.826;6.740;2023-05-14T07:04:43;100341.55;;;13.70;60.14
74722;BME280;63470;49.826;6.740;2023-05-14T07:07:20;100343.70;;;13.76;60.05
74722;BME280;63470;49.826;6.740;2023-05-14T07:09:45;100340.36;;;14.13;59.99
74722;BME280;63470;49.826;6.740;2023-05-14T07:12:15;100336.89;;;15.10;58.81
74722;BME280;63470;49.826;6.740;2023-05-14T07:14:46;100337.52;;;15.47;58.34
74722;BME280;63470;49.826;6.740;2023-05-14T07:17:16;100334.78;;;15.59;58.50
74722;BME280;63470;49.826;6.740;2023-05-14T07:19:46;100336.41;;;16.10;58.18
74722;BME280;63470;49.826;6.740;2023-05-14T07:22:16;100337.56;;;16.33;58.32
74722;BME280;63470;49.826;6.740;2023-05-14T07:24:47;100336.69;;;16.71;58.18
74722;BME280;63470;49.826;6.740;2023-05-14T07:27:17;100330.56;;;17.11;58.05
74722;BME280;63470;49.826;6.740;2023-05-14T07:29:48;100329.03;;;17.12;58.49
74722;BME280;63470;49.826;6.740;2023-05-14T07:32:18;100318.39;;;17.95;57.76
74722;BME280;63470;49.826;6.740;2023-05-14T07:34:49;100317.73;;;18.86;56.67
74722;BME280;63470;49.826;6.740;2023-05-14T07:37:22;100309.15;;;18.70;56.70
74722;BME280;63470;49.826;6.740;2023-05-14T07:39:52;100309.12;;;18.26;57.16
74722;BME280;63470;49.826;6.740;2023-05-14T07:42:22;100306.29;;;18.10;57.62
74722;BME280;63470;49.826;6.740;2023-05-14T07:44:52;100304.17;;;17.75;58.17
74722;BME280;63470;49.826;6.740;2023-05-14T07:47:23;100300.58;;;17.40;58.54
74722;BME280;63470;49.826;6.740;2023-05-14T07:49:54;100299.09;;;17.37;58.88
74722;BME280;63470;49.826;6.740;2023-05-14T07:52:24;100300.03;;;17.19;59.43
74722;BME280;63470;49.826;6.740;2023-05-14T07:54:55;100289.91;;;17.73;59.17
74722;BME280;63470;49.826;6.740;2023-05-14T07:57:26;100292.27;;;18.41;58.93
74722;BME280;63470;49.826;6.740;2023-05-14T07:59:56;100279.98;;;19.13;58.26
74722;BME280;63470;49.826;6.740;2023-05-14T08:02:28;100281.95;;;20.06;57.47
74722;BME280;63470;49.826;6.740;2023-05-14T08:04:58;100279.38;;;20.28;57.38
74722;BME280;63470;49.826;6.740;2023-05-14T08:07:30;100277.44;;;20.52;57.02
74722;BME280;63470;49.826;6.740;2023-05-14T08:09:59;100280.94;;;21.31;56.33
74722;BME280;63470;49.826;6.740;2023-05-14T08:12:30;100275.77;;;22.25;55.57
74722;BME280;63470;49.826;6.740;2023-05-14T08:15:02;100273.36;;;22.99;55.07
74722;BME280;63470;49.826;6.740;2023-05-14T08:17:34;100274.41;;;22.66;55.73
74722;BME280;63470;49.826;6.740;2023-05-14T08:20:05;100274.28;;;22.63;56.07
74722;BME280;63470;49.826;6.740;2023-05-14T08:22:34;100268.88;;;22.59;56.52
74722;BME280;63470;49.826;6.740;2023-05-14T08:25:06;100274.49;;;22.65;56.71
74722;BME280;63470;49.826;6.740;2023-05-14T08:27:35;100274.37;;;22.27;57.31
74722;BME280;63470;49.826;6.740;2023-05-14T08:30:06;100271.56;;;21.84;58.46
74722;BME280;63470;49.826;6.740;2023-05-14T08:32:41;100268.00;;;21.96;58.67
74722;BME280;63470;49.826;6.740;2023-05-14T08:35:09;100267.02;;;22.32;58.40
74722;BME280;63470;49.826;6.740;2023-05-14T08:37:40;100263.20;;;22.41;58.46
74722;BME280;63470;49.826;6.740;2023-05-14T08:40:09;100264.50;;;22.72;58.21
74722;BME280;63470;49.826;6.740;2023-05-14T08:42:42;100261.83;;;22.89;58.12
74722;BME280;63470;49.826;6.740;2023-05-14T08:45:19;100256.53;;;22.87;58.11
74722;BME280;63470;49.826;6.740;2023-05-14T08:47:38;100257.83;;;22.98;58.12
74722;BME280;63470;49.826;6.740;2023-05-14T08:50:17;100257.08;;;23.23;57.91
74722;BME280;63470;49.826;6.740;2023-05-14T08:52:49;100252.55;;;23.11;57.90
74722;BME280;63470;49.826;6.740;2023-05-14T08:55:11;100249.48;;;23.09;57.83
74722;BME280;63470;49.826;6.740;2023-05-14T08:57:43;100245.59;;;23.62;57.48
74722;BME280;63470;49.826;6.740;2023-05-14T09:00:19;100248.28;;;24.17;57.05
74722;BME280;63470;49.826;6.740;2023-05-14T09:02:43;100248.19;;;24.50;56.71
74722;BME280;63470;49.826;6.740;2023-05-14T09:05:15;100248.95;;;24.62;56.57
74722;BME280;63470;49.826;6.740;2023-05-14T09:07:52;100243.55;;;24.51;57.00
74722;BME280;63470;49.826;6.740;2023-05-14T09:10:14;100243.56;;;24.23;57.75
74722;BME280;63470;49.826;6.740;2023-05-14T09:12:46;100241.51;;;24.60;57.34
74722;BME280;63470;49.826;6.740;2023-05-14T09:15:18;100240.83;;;24.67;57.48
74722;BME280;63470;49.826;6.740;2023-05-14T09:17:50;100244.65;;;24.71;57.42
74722;BME280;63470;49.826;6.740;2023-05-14T09:20:21;100242.06;;;24.72;57.50
74722;BME280;63470;49.826;6.740;2023-05-14T09:22:52;100236.64;;;24.63;57.62
74722;BME280;63470;49.826;6.740;2023-05-14T09:25:18;100231.52;;;24.36;58.02
74722;BME280;63470;49.826;6.740;2023-05-14T09:27:47;100228.25;;;24.27;58.09
74722;BME280;63470;49.826;6.740;2023-05-14T09:30:19;100221.54;;;24.44;57.79
74722;BME280;63470;49.826;6.740;2023-05-14T09:32:56;100217.97;;;24.82;57.24
74722;BME280;63470;49.826;6.740;2023-05-14T09:35:21;100218.06;;;24.43;57.56
74722;BME280;63470;49.826;6.740;2023-05-14T09:37:49;100211.95;;;23.86;58.31
74722;BME280;63470;49.826;6.740;2023-05-14T09:40:20;100209.62;;;23.18;59.28
74722;BME280;63470;49.826;6.740;2023-05-14T09:42:51;100211.34;;;22.94;59.37
74722;BME280;63470;49.826;6.740;2023-05-14T09:45:18;100202.43;;;23.10;59.10
74722;BME280;63470;49.826;6.740;2023-05-14T09:47:49;100204.18;;;23.86;58.17
74722;BME280;63470;49.826;6.740;2023-05-14T09:50:21;100205.42;;;24.35;57.52
74722;BME280;63470;49.826;6.740;2023-05-14T09:52:50;100198.62;;;24.67;57.14
74722;BME280;63470;49.826;6.740;2023-05-14T09:55:24;100195.44;;;25.20;56.55
74722;BME280;63470;49.826;6.740;2023-05-14T09:57:52;100193.40;;;24.84;57.17
74722;BME280;63470;49.826;6.740;2023-05-14T10:00:23;100197.95;;;24.62;57.56
74722;BME280;63470;49.826;6.740;2023-05-14T10:02:57;100194.86;;;25.15;57.01
74722;BME280;63470;49.826;6.740;2023-05-14T10:05:22;100189.23;;;25.47;56.71
74722;BME280;63470;49.826;6.740;2023-05-14T10:07:56;100192.48;;;25.02;57.33
74722;BME280;63470;49.826;6.740;2023-05-14T10:10:25;100193.59;;;24.97;57.25
74722;BME280;63470;49.826;6.740;2023-05-14T10:12:57;100190.52;;;24.87;57.44
74722;BME280;63470;49.826;6.740;2023-05-14T10:15:47;100190.05;;;24.78;57.50
74722;BME280;63470;49.826;6.740;2023-05-14T10:18:02;100186.28;;;25.19;56.88
74722;BME280;63470;49.826;6.740;2023-05-14T10:20:29;100175.16;;;25.53;56.48
74722;BME280;63470;49.826;6.740;2023-05-14T10:22:57;100165.08;;;25.85;56.07
74722;BME280;63470;49.826;6.740;2023-05-14T10:25:26;100164.77;;;26.11;55.97
74722;BME280;63470;49.826;6.740;2023-05-14T10:27:57;100163.14;;;26.32;55.91
74722;BME280;63470;49.826;6.740;2023-05-14T10:30:26;100157.26;;;26.43;55.90
74722;BME280;63470;49.826;6.740;2023-05-14T10:33:15;100156.81;;;26.72;55.69
74722;BME280;63470;49.826;6.740;2023-05-14T10:37:59;100154.64;;;26.74;55.95
74722;BME280;63470;49.826;6.740;2023-05-14T10:40:30;100153.33;;;26.62;56.25
74722;BME280;63470;49.826;6.740;2023-05-14T10:43:01;100151.98;;;26.54;56.46
74722;BME280;63470;49.826;6.740;2023-05-14T10:45:35;100148.45;;;26.31;56.81
74722;BME280;63470;49.826;6.740;2023-05-14T10:48:06;100145.91;;;26.25;56.95
74722;BME280;63470;49.826;6.740;2023-05-14T10:50:31;100139.92;;;26.45;56.69
74722;BME280;63470;49.826;6.740;2023-05-14T10:53:02;100136.66;;;26.77;56.28
74722;BME280;63470;49.826;6.740;2023-05-14T10:55:38;100137.17;;;26.94;56.18
74722;BME280;63470;49.826;6.740;2023-05-14T10:58:04;100138.12;;;27.09;55.90
74722;BME280;63470;49.826;6.740;2023-05-14T11:00:34;100134.95;;;27.13;55.91
74722;BME280;63470;49.826;6.740;2023-05-14T11:03:05;100125.70;;;27.14;56.00
74722;BME280;63470;49.826;6.740;2023-05-14T11:05:39;100131.61;;;26.95;56.38
74722;BME280;63470;49.826;6.740;2023-05-14T11:08:07;100127.41;;;26.92;56.54
74722;BME280;63470;49.826;6.740;2023-05-14T11:10:36;100125.03;;;26.83;56.71
74722;BME280;63470;49.826;6.740;2023-05-14T11:13:06;100123.77;;;26.63;56.95
74722;BME280;63470;49.826;6.740;2023-05-14T11:15:38;100115.14;;;26.44;57.30
74722;BME280;63470;49.826;6.740;2023-05-14T11:18:07;100113.11;;;26.52;57.20
74722;BME280;63470;49.826;6.740;2023-05-14T11:20:37;100103.52;;;26.60;57.01
74722;BME280;63470;49.826;6.740;2023-05-14T11:23:09;100099.89;;;26.64;56.92
74722;BME280;63470;49.826;6.740;2023-05-14T11:25:39;100101.56;;;26.77;56.62
74722;BME280;63470;49.826;6.740;2023-05-14T11:28:10;100096.93;;;26.89;56.53
74722;BME280;63470;49.826;6.740;2023-05-14T11:30:41;100085.23;;;27.15;56.17
74722;BME280;63470;49.826;6.740;2023-05-14T11:33:11;100083.97;;;27.16;56.05
74722;BME280;63470;49.826;6.740;2023-05-14T11:35:46;100078.80;;;27.12;56.12
74722;BME280;63470;49.826;6.740;2023-05-14T11:38:18;100066.91;;;27.00;56.36
74722;BME280;63470;49.826;6.740;2023-05-14T11:40:57;100068.09;;;27.03;56.41
74722;BME280;63470;49.826;6.740;2023-05-14T11:43:14;100064.56;;;27.12;56.20
74722;BME280;63470;49.826;6.740;2023-05-14T11:45:51;100058.41;;;27.18;56.06
74722;BME280;63470;49.826;6.740;2023-05-14T11:48:15;100057.12;;;27.46;55.80
74722;BME280;63470;49.826;6.740;2023-05-14T11:50:48;100061.16;;;27.79;55.29
74722;BME280;63470;49.826;6.740;2023-05-14T11:53:24;100058.66;;;27.81;55.22
74722;BME280;63470;49.826;6.740;2023-05-14T11:55:47;100051.14;;;27.81;55.20
74722;BME280;63470;49.826;6.740;2023-05-14T11:58:19;100055.63;;;27.78;55.29
74722;BME280;63470;49.826;6.740;2023-05-14T12:00:49;100052.99;;;27.92;55.07
74722;BME280;63470;49.826;6.740;2023-05-14T12:03:29;100045.25;;;28.05;54.77
74722;BME280;63470;49.826;6.740;2023-05-14T12:05:59;100037.35;;;28.00;54.75
74722;BME280;63470;49.826;6.740;2023-05-14T12:08:21;100051.23;;;27.99;54.77
74722;BME280;63470;49.826;6.740;2023-05-14T12:10:52;100039.48;;;27.87;54.89
74722;BME280;63470;49.826;6.740;2023-05-14T12:13:21;100040.89;;;27.82;54.90
74722;BME280;63470;49.826;6.740;2023-05-14T12:15:57;100034.20;;;27.83;54.74
74722;BME280;63470;49.826;6.740;2023-05-14T12:18:30;100034.17;;;28.07;54.27
74722;BME280;63470;49.826;6.740;2023-05-14T12:20:54;100038.89;;;28.27;53.92
74722;BME280;63470;49.826;6.740;2023-05-14T12:23:28;100030.25;;;28.36;53.73
74722;BME280;63470;49.826;6.740;2023-05-14T12:25:54;100032.75;;;28.61;53.41
74722;BME280;63470;49.826;6.740;2023-05-14T12:28:25;100026.50;;;28.76;53.30
74722;BME280;63470;49.826;6.740;2023-05-14T12:30:56;100022.00;;;28.74;53.11
74722;BME280;63470;49.826;6.740;2023-05-14T12:33:26;100015.09;;;28.63;53.31
74722;BME280;63470;49.826;6.740;2023-05-14T12:36:02;100024.36;;;28.51;53.49
74722;BME280;63470;49.826;6.740;2023-05-14T12:38:30;100019.53;;;28.35;53.81
74722;BME280;63470;49.826;6.740;2023-05-14T12:40:57;100017.24;;;28.53;53.44
74722;BME280;63470;49.826;6.740;2023-05-14T12:43:31;100010.00;;;28.69;53.20
74722;BME280;63470;49.826;6.740;2023-05-14T12:45:58;99998.76;;;28.83;52.91
74722;BME280;63470;49.826;6.740;2023-05-14T12:48:29;99992.19;;;28.78;52.90
74722;BME280;63470;49.826;6.740;2023-05-14T12:50:59;99999.36;;;28.42;53.28
74722;BME280;63470;49.826;6.740;2023-05-14T12:53:30;99995.94;;;28.06;53.77
74722;BME280;63470;49.826;6.740;2023-05-14T12:56:01;99996.38;;;27.54;54.26
74722;BME280;63470;49.826;6.740;2023-05-14T12:58:31;99989.59;;;26.52;55.41
74722;BME280;63470;49.826;6.740;2023-05-14T13:01:01;99991.30;;;25.34;56.99
74722;BME280;63470;49.826;6.740;2023-05-14T13:03:32;99987.38;;;25.01;58.12
74722;BME280;63470;49.826;6.740;2023-05-14T13:06:03;99979.62;;;25.83;56.22
74722;BME280;63470;49.826;6.740;2023-05-14T13:08:34;99982.41;;;26.66;54.47
74722;BME280;63470;49.826;6.740;2023-05-14T13:11:04;99975.30;;;26.85;53.89